Berlin, NJ (08009)

9:03 AM EST on March 04, 2015 (GMT -0500)
Wyndam Hill | Change Station
CLOSE
Current Station
Personal Weather Station
Location: Winslow Township, NJ
Elevation: 154 ft
Nearby Weather Stations
Active Advisory: Winter Storm Warning

Elev 154 ft 39.74 °N, 74.99 °W | Updated 10 minutes ago

Overcast
Overcast
38.7 °F
Feels Like 36 °F
N
3.8
Wind Variable Wind from SSE

Today
High -- | Low -- °F
--% Chance of Precip.
Yesterday
High -- | Low -- °F
Precip. -- in
6:28 AM 5:54 PM
Waxing Gibbous, 99% visible
Pressure 29.91 in
Visibility 2.5 miles
Clouds Scattered Clouds 7500 ft
Mostly Cloudy 9000 ft
Overcast 11000 ft
Windchill 36 °F
Dew Point 38 °F
Humidity 96%
Rainfall 0.20 in
Snow Depth Not available.
UV 1 out of 12
Pollen .60 out of 12
Air Quality Not available.
Flu Activity Not available.
METAR KVAY 041354Z AUTO 23007KT 2 1/2SM BR SCT075 BKN090 OVC110 03/02 A2991 RMK AO2 RAE12UPB12E20 SLP128 P0000 T00280017 $

More Conditions Fewer Conditions

Pressure 29.91 in
Visibility 2.5 miles
Clouds Scattered Clouds 7500 ft
Mostly Cloudy 9000 ft
Overcast 11000 ft
Windchill 36 °F
Dew Point 38 °F
Humidity 96%
Rainfall 0.20 in
Snow Depth Not available.
UV 1 out of 12
Pollen .60 out of 12
Air Quality Not available.
Flu Activity Not available.
METAR KVAY 041354Z AUTO 23007KT 2 1/2SM BR SCT075 BKN090 OVC110 03/02 A2991 RMK AO2 RAE12UPB12E20 SLP128 P0000 T00280017 $

More Conditions Fewer Conditions

10-Day Weather Forecast

Almanac

Astronomy

Mar. 04, 2015 Rise Set
Actual Time
Civil Twilight
Nautical Twilight
Astronomical Twilight
Moon
Length of Visible Light
Length of Day
Tomorrow will be .
, % of the Moon is Illuminated

Today's Extremes

State Highs State Lows

Community

WunderPhotos

Upload Photos

1,802,456 photos uploaded!

WunderBlogs® & News

Nearby

Air Quality

  Air Quality AQ Index Pollutant
Not available.

Snow Depth

Station Depth Elevation

Earthquake Activity

City Distance Mag. Time & Date
Minimum magnitude displayed is 2.5.

Coastal Water Temperatures

Place Temperature

Nearby Weather Stations

Winter Storm Warning
Statement as of 8:34 AM EST on March 04, 2015

... Winter Storm Warning remains in effect from 11 PM this evening
to 7 PM EST Thursday...

* hazard types... a steady accumulating snow... possibly heavy at
times... from late tonight into Thursday.

* Snow accumulations... 6 to 10 inches.

* Timing... rain will change to snow overnight and the snow will
continue into Thursday.

* Impacts... widespread and substantial impacts on travel are
expected for late tonight and Thursday.

Precautionary/preparedness actions...

This Winter Storm Warning means that significant amounts of snow
are expected. The snow will make travel very hazardous or
impossible.